createdAt,value
2024-01-16T00:04:42.021Z,1.00
2024-01-16T00:10:35.470Z,0.90
2024-01-16T00:16:30.159Z,0.80
2024-01-16T00:22:23.529Z,1.00
2024-01-16T00:28:16.522Z,1.00
2024-01-16T00:34:11.243Z,0.90
2024-01-16T00:40:05.545Z,1.10
2024-01-16T00:45:58.608Z,1.10
2024-01-16T00:51:53.329Z,0.90
2024-01-16T00:57:46.637Z,0.90
2024-01-16T01:03:40.195Z,1.00
2024-01-16T01:09:36.360Z,1.00
2024-01-16T01:15:29.504Z,1.10
2024-01-16T01:21:22.573Z,1.10
2024-01-16T01:27:16.924Z,1.10
2024-01-16T01:33:10.448Z,1.00
2024-01-16T01:39:04.568Z,1.00
2024-01-16T01:44:59.441Z,1.00
2024-01-16T01:50:52.787Z,0.80
2024-01-16T01:56:47.055Z,0.70
2024-01-16T02:02:43.811Z,0.80
2024-01-16T02:08:37.177Z,0.80
2024-01-16T02:14:30.561Z,0.80
2024-01-16T02:20:25.065Z,0.90
2024-01-16T02:26:20.250Z,1.00
2024-01-16T02:32:15.533Z,0.90
2024-01-16T02:38:09.030Z,0.70
2024-01-16T02:44:03.820Z,0.60
2024-01-16T02:49:57.166Z,0.40
2024-01-16T02:55:50.227Z,0.50
2024-01-16T03:01:45.197Z,0.50
2024-01-16T03:07:38.876Z,0.50
2024-01-16T03:13:32.097Z,0.30
2024-01-16T03:19:26.868Z,0.40
2024-01-16T03:25:20.886Z,0.30
2024-01-16T03:31:16.132Z,0.40
2024-01-16T03:37:10.621Z,0.20
2024-01-16T03:43:04.082Z,0.30
2024-01-16T03:48:57.215Z,0.30
2024-01-16T03:54:51.738Z,0.40
2024-01-16T04:00:46.312Z,0.30
2024-01-16T04:06:39.539Z,0.20
2024-01-16T04:12:34.238Z,0.40
2024-01-16T04:18:27.624Z,0.30
2024-01-16T04:24:21.016Z,0.20
2024-01-16T04:30:16.311Z,0.00
2024-01-16T04:36:11.116Z,0.00
2024-01-16T04:42:04.414Z,0.20
2024-01-16T04:47:59.183Z,0.20
2024-01-16T04:53:52.455Z,0.40
2024-01-16T04:59:45.896Z,0.30
2024-01-16T05:05:41.013Z,0.40
2024-01-16T05:11:34.562Z,0.30
2024-01-16T05:17:28.069Z,0.30
2024-01-16T05:23:22.839Z,0.30
2024-01-16T05:29:16.457Z,0.40
2024-01-16T05:35:11.149Z,0.20
2024-01-16T05:41:06.326Z,0.50
2024-01-16T05:46:59.520Z,0.50
2024-01-16T05:52:52.721Z,0.40
2024-01-16T05:58:47.204Z,0.40
2024-01-16T06:04:40.484Z,0.60
2024-01-16T06:10:33.938Z,0.40
2024-01-16T06:16:29.028Z,0.50
2024-01-16T06:22:22.475Z,0.60
2024-01-16T06:28:15.623Z,0.30
2024-01-16T06:34:10.625Z,0.50
2024-01-16T06:40:05.568Z,0.30
2024-01-16T06:45:59.632Z,0.40
2024-01-16T06:51:54.038Z,0.50
2024-01-16T06:57:47.775Z,0.30
2024-01-16T07:03:40.861Z,0.50
2024-01-16T07:09:35.491Z,0.40
2024-01-16T07:15:28.966Z,0.40
2024-01-16T07:21:22.739Z,0.30
2024-01-16T07:27:17.277Z,0.20
2024-01-16T07:33:10.618Z,0.00
2024-01-16T07:39:04.069Z,0.20
2024-01-16T07:44:59.520Z,0.00
2024-01-16T07:50:53.319Z,-0.10
2024-01-16T07:56:47.313Z,0.10
2024-01-16T08:02:42.728Z,0.10
2024-01-16T08:08:36.309Z,-0.10
2024-01-16T08:14:30.407Z,0.00
2024-01-16T08:20:24.883Z,0.00
2024-01-16T08:26:18.365Z,0.00
2024-01-16T08:32:11.976Z,0.00
2024-01-16T08:38:06.589Z,0.10
2024-01-16T08:43:59.728Z,0.00
2024-01-16T08:49:53.377Z,0.00
2024-01-16T08:55:48.094Z,0.10
2024-01-16T09:01:43.291Z,0.10
2024-01-16T09:07:36.666Z,0.00
2024-01-16T09:13:31.260Z,-0.10
2024-01-16T09:19:24.660Z,-0.10
2024-01-16T09:25:18.354Z,0.00
2024-01-16T09:31:17.605Z,0.10
2024-01-16T09:37:10.654Z,0.10
2024-01-16T09:43:05.940Z,0.10
2024-01-16T09:49:03.044Z,0.10
2024-01-16T09:54:56.352Z,0.10
2024-01-16T10:00:50.146Z,0.00
2024-01-16T10:06:48.503Z,0.10
2024-01-16T10:12:42.606Z,0.10
2024-01-16T10:18:36.445Z,0.20
2024-01-16T10:24:31.365Z,0.20
2024-01-16T10:30:25.655Z,0.20
2024-01-16T10:36:21.690Z,0.30
2024-01-16T10:42:17.840Z,0.30
2024-01-16T10:48:11.366Z,0.30
2024-01-16T10:54:06.849Z,0.40
2024-01-16T11:00:05.850Z,0.50
2024-01-16T11:06:00.773Z,0.50
2024-01-16T11:11:56.489Z,0.50
2024-01-16T11:17:52.309Z,0.50
2024-01-16T11:23:48.404Z,0.50
2024-01-16T11:29:42.159Z,0.60
2024-01-16T11:35:39.744Z,0.60
2024-01-16T11:41:57.673Z,0.60
2024-01-16T11:47:53.425Z,0.60
2024-01-16T11:53:48.265Z,0.70
2024-01-16T12:00:01.620Z,0.70
2024-01-16T12:06:09.498Z,0.70
2024-01-16T12:12:05.188Z,0.70
2024-01-16T12:18:00.606Z,0.70
2024-01-16T12:24:04.339Z,0.80
2024-01-16T12:30:11.857Z,0.80
2024-01-16T12:36:06.834Z,0.90
2024-01-16T12:42:01.252Z,1.00
2024-01-16T12:47:58.852Z,1.10
2024-01-16T12:53:52.868Z,1.10
2024-01-16T12:59:46.222Z,1.10
2024-01-16T13:05:41.159Z,1.10
2024-01-16T13:11:46.487Z,1.10
2024-01-16T13:17:39.667Z,1.10
2024-01-16T13:23:34.155Z,1.10
2024-01-16T13:29:27.453Z,1.10
2024-01-16T13:35:20.901Z,1.20
2024-01-16T13:41:15.584Z,1.20
2024-01-16T13:47:12.137Z,1.10
2024-01-16T13:53:08.875Z,1.10
2024-01-16T13:59:03.740Z,1.10
2024-01-16T14:04:56.844Z,1.20
2024-01-16T14:10:49.988Z,1.10
2024-01-16T14:16:51.518Z,1.20
2024-01-16T14:22:48.477Z,1.20
2024-01-16T14:28:41.492Z,1.20
2024-01-16T14:34:36.361Z,1.20
2024-01-16T14:40:29.787Z,1.20
2024-01-16T14:46:24.490Z,1.20
2024-01-16T14:52:20.483Z,1.10
2024-01-16T14:58:13.762Z,1.10
2024-01-16T15:04:07.534Z,1.00
2024-01-16T15:10:02.216Z,1.10
2024-01-16T15:15:56.979Z,1.10
2024-01-16T15:21:50.068Z,1.10
2024-01-16T15:27:45.383Z,1.10
2024-01-16T15:33:38.774Z,1.00
2024-01-16T15:39:32.223Z,1.00
2024-01-16T15:45:27.842Z,1.00
2024-01-16T15:51:21.449Z,1.10
2024-01-16T15:57:16.868Z,1.10
2024-01-16T16:03:11.891Z,1.20
2024-01-16T16:09:05.601Z,1.20
2024-01-16T16:14:59.065Z,1.20
2024-01-16T16:20:53.692Z,1.20
2024-01-16T16:26:47.107Z,1.30
2024-01-16T16:32:40.553Z,1.20
2024-01-16T16:38:35.199Z,1.10
2024-01-16T16:44:28.586Z,1.10
2024-01-16T16:50:21.962Z,1.10
2024-01-16T16:56:17.909Z,1.10
2024-01-16T17:02:11.417Z,1.00
2024-01-16T17:08:05.458Z,1.00
2024-01-16T17:14:00.212Z,1.00
2024-01-16T17:19:53.559Z,0.90
2024-01-16T17:25:46.708Z,0.90
2024-01-16T17:31:43.114Z,0.90
2024-01-16T17:37:37.689Z,0.90
2024-01-16T17:43:30.762Z,0.80
2024-01-16T17:49:25.508Z,0.90
2024-01-16T17:55:19.213Z,0.80
2024-01-16T18:01:13.556Z,0.80
2024-01-16T18:07:08.648Z,0.80
2024-01-16T18:13:02.117Z,0.70
2024-01-16T18:18:55.616Z,0.80
2024-01-16T18:24:50.092Z,0.70
2024-01-16T18:30:43.221Z,0.80
2024-01-16T18:36:36.493Z,0.60
2024-01-16T18:42:31.170Z,0.70
2024-01-16T18:48:24.256Z,0.70
2024-01-16T18:54:18.042Z,0.80
2024-01-16T19:00:15.267Z,0.70
2024-01-16T19:06:13.804Z,0.70
2024-01-16T19:12:08.734Z,0.90
2024-01-16T19:18:06.476Z,0.70
2024-01-16T19:23:59.867Z,0.70
2024-01-16T19:29:52.978Z,0.70
2024-01-16T19:35:48.332Z,0.70
2024-01-16T19:41:42.062Z,0.70
2024-01-16T19:47:35.801Z,0.60
2024-01-16T19:53:30.329Z,0.60
2024-01-16T19:59:26.277Z,0.60
2024-01-16T20:05:19.979Z,0.60
2024-01-16T20:11:14.857Z,0.60
2024-01-16T20:17:08.236Z,0.60
2024-01-16T20:23:01.313Z,0.50
2024-01-16T20:28:56.189Z,0.60
2024-01-16T20:34:49.547Z,0.40
2024-01-16T20:40:44.540Z,0.50
2024-01-16T20:46:39.612Z,0.50
2024-01-16T20:52:32.752Z,0.40
2024-01-16T20:58:26.644Z,0.30
2024-01-16T21:04:21.356Z,0.30
2024-01-16T21:10:14.867Z,0.30
2024-01-16T21:16:08.400Z,0.20
2024-01-16T21:22:03.310Z,0.20
2024-01-16T21:27:56.534Z,0.20
2024-01-16T21:33:49.798Z,0.10
2024-01-16T21:39:44.514Z,0.20
2024-01-16T21:45:37.753Z,0.10
2024-01-16T21:51:30.848Z,0.00
2024-01-16T21:57:25.464Z,0.00
2024-01-16T22:03:18.732Z,0.10
2024-01-16T22:09:15.529Z,0.10
2024-01-16T22:15:12.745Z,0.00
2024-01-16T22:21:08.353Z,0.10
2024-01-16T22:27:01.699Z,0.00
2024-01-16T22:32:56.316Z,-0.10
2024-01-16T22:38:49.785Z,-0.10
2024-01-16T22:44:45.827Z,-0.10
2024-01-16T22:50:43.595Z,-0.20
2024-01-16T22:56:37.284Z,-0.10
2024-01-16T23:02:31.088Z,-0.20
2024-01-16T23:08:25.773Z,-0.20
2024-01-16T23:14:19.101Z,-0.40
2024-01-16T23:20:16.003Z,-0.30
2024-01-16T23:26:11.456Z,-0.30
2024-01-16T23:32:09.551Z,-0.20
2024-01-16T23:38:02.886Z,-0.20
2024-01-16T23:43:58.169Z,-0.30
2024-01-16T23:49:52.232Z,-0.40
2024-01-16T23:55:46.353Z,-0.30
